createdAt,value
2022-09-23T00:01:09.549Z,88.60
2022-09-23T00:03:38.665Z,88.78
2022-09-23T00:06:07.906Z,89.33
2022-09-23T00:08:34.868Z,89.90
2022-09-23T00:11:18.860Z,89.45
2022-09-23T00:13:48.896Z,89.08
2022-09-23T00:16:18.672Z,89.07
2022-09-23T00:18:45.316Z,88.79
2022-09-23T00:21:14.509Z,88.81
2022-09-23T00:23:43.063Z,89.66
2022-09-23T00:26:12.765Z,89.53
2022-09-23T00:28:40.069Z,89.68
2022-09-23T00:31:12.869Z,89.36
2022-09-23T00:33:40.680Z,89.83
2022-09-23T00:36:11.143Z,89.13
2022-09-23T00:38:38.618Z,89.95
2022-09-23T00:41:06.533Z,89.81
2022-09-23T00:43:46.854Z,89.83
2022-09-23T00:46:18.440Z,89.91
2022-09-23T00:48:45.782Z,89.77
2022-09-23T00:51:18.211Z,89.86
2022-09-23T00:53:48.729Z,89.97
2022-09-23T00:56:16.026Z,89.53
2022-09-23T00:58:46.536Z,89.60
2022-09-23T01:01:16.802Z,90.42
2022-09-23T01:03:45.795Z,89.93
2022-09-23T01:06:13.281Z,90.00
2022-09-23T01:08:42.118Z,89.77
2022-09-23T01:11:37.151Z,89.38
2022-09-23T01:14:09.741Z,89.95
2022-09-23T01:16:45.248Z,90.06
2022-09-23T01:19:36.235Z,89.54
2022-09-23T01:22:41.067Z,89.68
2022-09-23T01:25:47.238Z,89.65
2022-09-23T01:28:39.375Z,90.08
2022-09-23T01:31:15.913Z,90.97
2022-09-23T01:34:02.521Z,90.31
2022-09-23T01:37:04.529Z,90.64
2022-09-23T01:39:39.449Z,89.89
2022-09-23T01:42:17.429Z,91.00
2022-09-23T01:44:51.582Z,91.96
2022-09-23T01:47:57.253Z,93.00
2022-09-23T01:51:07.719Z,91.79
2022-09-23T01:53:50.657Z,92.19
2022-09-23T01:56:28.986Z,92.02
2022-09-23T01:59:18.698Z,93.09
2022-09-23T02:01:52.497Z,92.44
2022-09-23T02:04:45.818Z,91.60
2022-09-23T02:07:28.275Z,92.15
2022-09-23T02:10:19.819Z,92.14
2022-09-23T02:12:52.095Z,92.57
2022-09-23T02:15:23.528Z,93.20
2022-09-23T02:17:52.249Z,91.95
2022-09-23T02:20:36.722Z,93.23
2022-09-23T02:23:13.179Z,92.41
2022-09-23T02:26:16.561Z,93.00
2022-09-23T02:29:27.817Z,93.35
2022-09-23T02:32:00.303Z,92.02
2022-09-23T02:34:56.260Z,92.37
2022-09-23T02:37:30.246Z,93.21
2022-09-23T02:40:03.029Z,93.27
2022-09-23T02:42:57.236Z,92.80
2022-09-23T02:45:24.086Z,92.37
2022-09-23T02:47:56.686Z,92.53
2022-09-23T02:50:23.327Z,92.20
2022-09-23T02:52:50.031Z,93.00
2022-09-23T02:55:18.642Z,93.56
2022-09-23T02:57:46.240Z,92.92
2022-09-23T03:00:13.565Z,92.57
2022-09-23T03:02:50.958Z,92.54
2022-09-23T03:05:32.410Z,91.94
2022-09-23T03:08:30.763Z,92.28
2022-09-23T03:11:10.605Z,92.12
2022-09-23T03:13:46.892Z,92.17
2022-09-23T03:16:32.823Z,91.96
2022-09-23T03:19:18.549Z,91.77
2022-09-23T03:21:56.849Z,92.15
2022-09-23T03:24:25.069Z,91.94
2022-09-23T03:26:54.206Z,91.84
2022-09-23T03:29:23.518Z,92.11
2022-09-23T03:31:52.895Z,93.15
2022-09-23T03:34:31.910Z,92.65
2022-09-23T03:37:03.405Z,93.11
2022-09-23T03:39:40.265Z,92.52
2022-09-23T03:42:17.061Z,93.29
2022-09-23T03:44:45.697Z,93.34
2022-09-23T03:47:14.723Z,93.38
2022-09-23T03:49:44.572Z,93.02
2022-09-23T03:52:11.204Z,94.63
2022-09-23T03:54:37.753Z,93.95
2022-09-23T03:57:04.388Z,94.33
2022-09-23T03:59:31.455Z,93.97
2022-09-23T04:01:59.566Z,94.47
2022-09-23T04:04:27.910Z,94.45
2022-09-23T04:06:55.698Z,93.96
2022-09-23T04:09:23.040Z,94.25
2022-09-23T04:11:53.519Z,93.69
2022-09-23T04:14:21.716Z,94.29
2022-09-23T04:16:49.262Z,93.69
2022-09-23T04:19:17.853Z,93.17
2022-09-23T04:21:44.751Z,93.85
2022-09-23T04:24:11.866Z,93.95
2022-09-23T04:26:39.330Z,93.76
2022-09-23T04:29:06.572Z,94.02
2022-09-23T04:31:33.879Z,93.12
2022-09-23T04:34:00.757Z,93.69
2022-09-23T04:36:29.134Z,93.56
2022-09-23T04:38:56.361Z,93.94
2022-09-23T04:41:23.078Z,93.64
2022-09-23T04:43:49.638Z,94.03
2022-09-23T04:46:16.781Z,93.89
2022-09-23T04:48:44.501Z,93.75
2022-09-23T04:51:17.443Z,93.93
2022-09-23T04:53:46.495Z,93.67
2022-09-23T04:56:24.792Z,94.29
2022-09-23T04:58:51.402Z,94.49
2022-09-23T05:01:26.833Z,93.96
2022-09-23T05:03:56.365Z,94.20
2022-09-23T05:06:22.952Z,94.45
2022-09-23T05:08:55.084Z,94.66
2022-09-23T05:11:22.493Z,94.87
2022-09-23T05:13:51.060Z,94.91
2022-09-23T05:16:19.226Z,94.85
2022-09-23T05:18:48.201Z,94.78
2022-09-23T05:21:17.101Z,94.41
2022-09-23T05:23:48.730Z,94.57
2022-09-23T05:26:15.946Z,94.54
2022-09-23T05:28:42.480Z,94.89
2022-09-23T05:31:20.651Z,95.05
2022-09-23T05:33:51.966Z,94.89
2022-09-23T05:36:20.379Z,95.22
2022-09-23T05:38:49.200Z,94.84
2022-09-23T05:41:17.269Z,94.88
2022-09-23T05:43:44.258Z,94.69
2022-09-23T05:46:16.659Z,95.02
2022-09-23T05:48:45.865Z,95.00
2022-09-23T05:51:27.609Z,95.01
2022-09-23T05:53:58.404Z,94.98
2022-09-23T05:56:27.506Z,95.33
2022-09-23T05:58:56.837Z,95.27
2022-09-23T06:01:26.151Z,96.01
2022-09-23T06:03:53.908Z,95.65
2022-09-23T06:06:31.050Z,96.00
2022-09-23T06:08:59.287Z,95.37
2022-09-23T06:11:26.590Z,95.86
2022-09-23T06:14:01.290Z,96.46
2022-09-23T06:16:29.716Z,96.40
2022-09-23T06:18:56.607Z,96.58
2022-09-23T06:21:23.238Z,96.05
2022-09-23T06:23:52.980Z,95.94
2022-09-23T06:26:22.578Z,96.25
2022-09-23T06:28:50.361Z,95.65
2022-09-23T06:31:17.825Z,96.10
2022-09-23T06:33:46.236Z,96.19
2022-09-23T06:36:30.262Z,95.73
2022-09-23T06:39:02.302Z,95.79
2022-09-23T06:41:29.161Z,95.97
2022-09-23T06:43:55.723Z,95.93
2022-09-23T06:46:22.332Z,96.64
2022-09-23T06:48:49.724Z,97.10
2022-09-23T06:51:19.296Z,97.81
2022-09-23T06:53:48.188Z,98.42
2022-09-23T06:56:16.718Z,97.82
2022-09-23T06:58:43.312Z,99.13
2022-09-23T07:01:16.313Z,98.10
2022-09-23T07:03:44.370Z,96.12
2022-09-23T07:06:11.186Z,95.39
2022-09-23T07:08:37.870Z,92.46
2022-09-23T07:11:06.667Z,90.34
2022-09-23T07:13:34.016Z,89.54
2022-09-23T07:16:04.759Z,86.00
2022-09-23T07:18:37.332Z,82.78
2022-09-23T07:21:15.935Z,78.68
2022-09-23T07:23:46.798Z,75.73
2022-09-23T07:26:14.695Z,75.31
2022-09-23T07:28:41.552Z,73.50
2022-09-23T07:31:13.902Z,71.10
2022-09-23T07:33:44.103Z,69.23
2022-09-23T07:36:13.970Z,69.03
2022-09-23T07:38:45.222Z,68.70
2022-09-23T07:41:17.994Z,64.45
2022-09-23T07:43:48.235Z,65.24
2022-09-23T07:46:17.587Z,62.26
2022-09-23T07:48:45.795Z,62.91
2022-09-23T07:51:21.644Z,62.66
2022-09-23T07:53:49.340Z,60.12
2022-09-23T07:56:16.420Z,60.42
2022-09-23T07:58:43.215Z,58.94
2022-09-23T08:01:12.052Z,57.51
2022-09-23T08:03:39.989Z,57.37
2022-09-23T08:06:12.142Z,56.95
2022-09-23T08:08:43.318Z,56.83
2022-09-23T08:11:13.269Z,62.24
2022-09-23T08:13:41.176Z,59.26
2022-09-23T08:16:08.152Z,57.68
2022-09-23T08:18:35.273Z,54.99
2022-09-23T08:21:01.931Z,55.00
2022-09-23T08:23:33.344Z,53.59
2022-09-23T08:26:02.438Z,54.87
2022-09-23T08:28:29.291Z,54.94
2022-09-23T08:30:56.303Z,56.90
2022-09-23T08:33:23.995Z,55.63
2022-09-23T08:35:51.553Z,57.67
2022-09-23T08:38:18.912Z,55.43
2022-09-23T08:40:49.614Z,55.92
2022-09-23T08:43:26.848Z,52.45
2022-09-23T08:45:55.840Z,54.52
2022-09-23T08:48:29.483Z,53.46
2022-09-23T08:51:04.585Z,58.85
2022-09-23T08:53:36.835Z,52.25
2022-09-23T08:56:07.520Z,52.14
2022-09-23T08:58:52.266Z,54.37
2022-09-23T09:01:29.461Z,51.05
2022-09-23T09:04:02.222Z,51.23
2022-09-23T09:06:52.210Z,52.27
2022-09-23T09:09:32.550Z,54.61
2022-09-23T09:12:04.962Z,49.95
2022-09-23T09:14:54.703Z,52.09
2022-09-23T09:17:48.452Z,51.96
2022-09-23T09:20:27.386Z,46.95
2022-09-23T09:22:58.066Z,48.02
2022-09-23T09:25:37.908Z,47.69
2022-09-23T09:28:19.578Z,50.56
2022-09-23T09:30:50.495Z,48.63
2022-09-23T09:33:19.102Z,54.63
2022-09-23T09:36:07.703Z,46.26
2022-09-23T09:38:37.312Z,48.78
2022-09-23T09:41:17.984Z,49.29
2022-09-23T09:43:53.423Z,47.85
2022-09-23T09:46:26.110Z,50.97
2022-09-23T09:49:00.550Z,52.89
2022-09-23T09:51:29.451Z,47.80
2022-09-23T09:54:22.162Z,49.17
2022-09-23T09:56:49.907Z,48.10
2022-09-23T09:59:23.198Z,52.41
2022-09-23T10:01:49.862Z,48.58
2022-09-23T10:04:25.013Z,48.10
2022-09-23T10:07:24.379Z,49.01
2022-09-23T10:09:52.139Z,50.06
2022-09-23T10:12:21.360Z,48.15
2022-09-23T10:14:53.244Z,50.94
2022-09-23T10:17:39.696Z,44.80
2022-09-23T10:20:14.738Z,45.34
2022-09-23T10:22:42.916Z,43.91
2022-09-23T10:25:24.652Z,45.54
2022-09-23T10:27:51.215Z,43.76
2022-09-23T10:30:24.942Z,49.02
2022-09-23T10:32:54.979Z,47.01
2022-09-23T10:35:24.572Z,47.86
2022-09-23T10:37:56.362Z,50.03
2022-09-23T10:40:56.694Z,50.82
2022-09-23T10:44:13.178Z,52.30
2022-09-23T10:46:53.243Z,51.53
2022-09-23T10:50:17.535Z,46.45
2022-09-23T10:52:52.645Z,44.80
2022-09-23T10:55:48.605Z,44.88
2022-09-23T10:58:38.146Z,44.67
2022-09-23T11:01:28.590Z,42.75
2022-09-23T11:04:32.205Z,43.91
2022-09-23T11:07:20.759Z,45.39
2022-09-23T11:10:14.560Z,43.20
2022-09-23T11:13:14.049Z,46.32
2022-09-23T11:16:02.381Z,42.03
2022-09-23T11:18:45.116Z,44.63
2022-09-23T11:21:44.179Z,44.85
2022-09-23T11:24:50.166Z,45.65
2022-09-23T11:27:41.215Z,43.72
2022-09-23T11:30:08.019Z,44.77
2022-09-23T11:35:41.795Z,39.80
2022-09-23T11:38:15.310Z,44.37
2022-09-23T11:40:46.700Z,41.64
2022-09-23T11:43:23.522Z,38.40
2022-09-23T11:45:58.616Z,44.85
2022-09-23T11:48:41.677Z,40.50
2022-09-23T11:51:16.643Z,41.46
2022-09-23T11:53:46.712Z,41.20
2022-09-23T11:56:35.956Z,41.19
2022-09-23T11:59:13.086Z,43.82
2022-09-23T12:01:47.620Z,39.08
2022-09-23T12:04:31.323Z,38.26
2022-09-23T12:07:05.989Z,44.91
2022-09-23T12:09:58.222Z,40.17
2022-09-23T12:12:52.055Z,40.02
2022-09-23T12:15:37.405Z,39.78
2022-09-23T12:18:45.781Z,37.10
2022-09-23T12:21:49.906Z,35.73
2022-09-23T12:24:26.678Z,37.90
2022-09-23T12:26:58.996Z,39.51
2022-09-23T12:29:30.433Z,39.31
2022-09-23T12:31:57.093Z,40.46
2022-09-23T12:34:30.556Z,42.17
2022-09-23T12:37:04.846Z,39.09
2022-09-23T12:39:35.458Z,40.25
2022-09-23T12:42:05.170Z,39.14
2022-09-23T12:44:45.122Z,40.60
2022-09-23T12:47:14.685Z,41.69
2022-09-23T12:49:42.865Z,42.74
2022-09-23T12:52:14.649Z,35.88
2022-09-23T12:54:43.294Z,34.61
2022-09-23T12:57:14.731Z,35.45
2022-09-23T13:00:09.369Z,35.21
2022-09-23T13:03:08.245Z,35.08
2022-09-23T13:06:07.140Z,35.64
2022-09-23T13:08:39.007Z,37.45
2022-09-23T13:11:14.049Z,38.78
2022-09-23T13:13:45.413Z,34.54
2022-09-23T13:16:33.430Z,36.25
2022-09-23T13:19:05.510Z,40.63
2022-09-23T13:21:47.257Z,41.12
2022-09-23T13:24:14.362Z,41.39
2022-09-23T13:26:45.426Z,39.20
2022-09-23T13:29:33.210Z,37.37
2022-09-23T13:32:02.374Z,40.33
2022-09-23T13:34:38.719Z,41.52
2022-09-23T13:37:42.495Z,40.91
2022-09-23T13:40:15.995Z,42.53
2022-09-23T13:42:45.519Z,43.39
2022-09-23T13:45:16.820Z,44.39
2022-09-23T13:47:47.532Z,47.54
2022-09-23T13:50:20.412Z,48.50
2022-09-23T13:52:56.441Z,44.56
2022-09-23T13:55:41.395Z,42.47
2022-09-23T13:58:19.546Z,45.01
2022-09-23T14:00:47.957Z,43.24
2022-09-23T14:03:35.361Z,47.40
2022-09-23T14:06:11.417Z,48.22
2022-09-23T14:11:18.961Z,42.18
2022-09-23T14:13:47.365Z,43.46
2022-09-23T14:16:16.112Z,45.88
2022-09-23T14:18:48.405Z,46.29
2022-09-23T14:21:37.276Z,46.62
2022-09-23T14:24:21.598Z,44.83
2022-09-23T14:26:55.698Z,47.25
2022-09-23T14:29:35.181Z,45.61
2022-09-23T14:32:06.478Z,48.07
2022-09-23T14:34:42.010Z,47.90
2022-09-23T14:37:51.124Z,49.73
2022-09-23T14:40:22.028Z,52.05
2022-09-23T14:42:54.602Z,47.41
2022-09-23T14:45:25.976Z,47.42
2022-09-23T14:48:15.084Z,50.53
2022-09-23T14:50:51.473Z,53.48
2022-09-23T14:53:23.903Z,46.73
2022-09-23T14:56:07.906Z,49.61
2022-09-23T14:58:52.060Z,48.62
2022-09-23T15:01:33.705Z,54.54
2022-09-23T15:04:15.736Z,48.74
2022-09-23T15:07:07.591Z,50.60
2022-09-23T15:09:41.669Z,50.22
2022-09-23T15:12:14.620Z,48.90
2022-09-23T15:14:46.504Z,49.71
2022-09-23T15:17:35.144Z,53.94
2022-09-23T15:20:08.910Z,49.92
2022-09-23T15:22:54.175Z,48.24
2022-09-23T15:25:35.640Z,51.70
2022-09-23T15:28:08.392Z,46.00
2022-09-23T15:30:37.007Z,46.94
2022-09-23T15:33:04.499Z,47.54
2022-09-23T15:35:35.623Z,48.74
2022-09-23T15:38:03.284Z,50.36
2022-09-23T15:40:32.794Z,48.13
2022-09-23T15:43:02.512Z,49.82
2022-09-23T15:45:36.419Z,49.26
2022-09-23T15:48:14.238Z,49.57
2022-09-23T15:50:46.604Z,52.22
2022-09-23T15:53:16.242Z,49.10
2022-09-23T15:55:42.993Z,50.76
2022-09-23T15:58:09.630Z,50.99
2022-09-23T16:00:36.750Z,51.38
2022-09-23T16:03:06.728Z,50.82
2022-09-23T16:05:39.375Z,51.90
2022-09-23T16:08:09.202Z,56.57
2022-09-23T16:10:36.611Z,53.34
2022-09-23T16:13:06.372Z,54.77
2022-09-23T16:15:33.401Z,56.81
2022-09-23T16:18:00.580Z,57.87
2022-09-23T16:20:29.801Z,57.05
2022-09-23T16:22:58.186Z,53.80
2022-09-23T16:25:28.072Z,56.55
2022-09-23T16:27:56.259Z,54.64
2022-09-23T16:30:24.001Z,56.06
2022-09-23T16:32:51.755Z,55.30
2022-09-23T16:35:23.002Z,59.16
2022-09-23T16:37:50.772Z,59.57
2022-09-23T16:40:20.621Z,59.24
2022-09-23T16:42:49.109Z,57.59
2022-09-23T16:45:17.912Z,57.55
2022-09-23T16:47:46.502Z,57.71
2022-09-23T16:50:14.773Z,58.83
2022-09-23T16:52:42.233Z,58.79
2022-09-23T16:55:11.217Z,59.43
2022-09-23T16:57:39.717Z,58.50
2022-09-23T17:00:32.587Z,59.03
2022-09-23T17:03:18.345Z,59.99
2022-09-23T17:05:46.867Z,59.68
2022-09-23T17:08:15.758Z,61.21
2022-09-23T17:10:44.260Z,60.38
2022-09-23T17:13:15.632Z,60.98
2022-09-23T17:15:43.223Z,62.41
2022-09-23T17:18:10.261Z,63.28
2022-09-23T17:20:38.743Z,64.37
2022-09-23T17:23:05.444Z,64.44
2022-09-23T17:25:34.039Z,64.53
2022-09-23T17:28:00.898Z,66.54
2022-09-23T17:30:33.352Z,66.84
2022-09-23T17:33:00.227Z,66.04
2022-09-23T17:35:26.862Z,66.31
2022-09-23T17:37:56.527Z,66.91
2022-09-23T17:40:26.178Z,66.71
2022-09-23T17:42:55.571Z,68.44
2022-09-23T17:45:22.317Z,68.79
2022-09-23T17:47:55.015Z,68.71
2022-09-23T17:50:22.484Z,70.95
2022-09-23T17:52:49.166Z,72.61
2022-09-23T17:55:16.787Z,72.21
2022-09-23T17:57:43.461Z,71.67
2022-09-23T18:00:10.701Z,72.01
2022-09-23T18:02:37.300Z,72.35
2022-09-23T18:05:03.968Z,70.74
2022-09-23T18:07:30.615Z,71.05
2022-09-23T18:09:57.457Z,71.35
2022-09-23T18:12:24.095Z,71.22
2022-09-23T18:14:50.707Z,71.91
2022-09-23T18:17:17.476Z,72.16
2022-09-23T18:19:46.494Z,73.89
2022-09-23T18:22:13.365Z,73.09
2022-09-23T18:24:41.206Z,73.07
2022-09-23T18:27:08.188Z,73.56
2022-09-23T18:29:35.100Z,74.96
2022-09-23T18:32:02.788Z,75.44
2022-09-23T18:34:29.660Z,75.31
2022-09-23T18:36:56.291Z,74.42
2022-09-23T18:39:22.907Z,73.55
2022-09-23T18:41:49.610Z,73.65
2022-09-23T18:44:16.940Z,75.90
2022-09-23T18:46:46.661Z,75.96
2022-09-23T18:49:31.890Z,76.04
2022-09-23T18:51:59.449Z,76.34
2022-09-23T18:54:28.640Z,77.81
2022-09-23T18:56:56.634Z,76.19
2022-09-23T18:59:28.010Z,77.14
2022-09-23T19:01:57.569Z,77.19
2022-09-23T19:04:26.117Z,76.96
2022-09-23T19:06:54.805Z,77.06
2022-09-23T19:09:21.451Z,77.26
2022-09-23T19:11:50.797Z,76.66
2022-09-23T19:14:17.436Z,77.82
2022-09-23T19:16:44.068Z,78.23
2022-09-23T19:19:10.984Z,78.45
2022-09-23T19:21:37.576Z,77.86
2022-09-23T19:24:06.977Z,77.92
2022-09-23T19:26:39.246Z,79.03
2022-09-23T19:29:08.407Z,78.67
2022-09-23T19:31:40.424Z,79.98
2022-09-23T19:34:18.613Z,80.83
2022-09-23T19:36:47.417Z,80.53
2022-09-23T19:39:23.484Z,81.18
2022-09-23T19:44:32.112Z,81.03
2022-09-23T19:46:58.842Z,81.00
2022-09-23T19:49:25.831Z,81.32
2022-09-23T19:51:58.824Z,81.21
2022-09-23T19:54:27.587Z,82.30
2022-09-23T19:56:54.731Z,82.94
2022-09-23T19:59:21.359Z,80.64
2022-09-23T20:01:58.322Z,81.91
2022-09-23T20:04:25.012Z,82.75
2022-09-23T20:06:51.671Z,81.95
2022-09-23T20:09:18.313Z,83.16
2022-09-23T20:11:48.186Z,83.51
2022-09-23T20:14:15.220Z,82.59
2022-09-23T20:16:41.917Z,83.21
2022-09-23T20:19:14.295Z,84.03
2022-09-23T20:21:40.866Z,83.48
2022-09-23T20:24:09.666Z,82.11
2022-09-23T20:26:55.076Z,83.43
2022-09-23T20:29:21.726Z,83.54
2022-09-23T20:31:48.414Z,84.00
2022-09-23T20:34:15.233Z,83.79
2022-09-23T20:36:42.511Z,83.99
2022-09-23T20:39:10.362Z,83.86
2022-09-23T20:41:39.327Z,84.58
2022-09-23T20:44:10.426Z,84.85
2022-09-23T20:46:37.301Z,86.11
2022-09-23T20:49:04.366Z,85.49
2022-09-23T20:51:33.287Z,86.17
2022-09-23T20:54:00.459Z,86.82
2022-09-23T20:56:30.653Z,87.60
2022-09-23T20:59:01.063Z,86.51
2022-09-23T21:01:27.762Z,85.91
2022-09-23T21:03:55.997Z,84.45
2022-09-23T21:06:26.213Z,85.40
2022-09-23T21:08:58.906Z,85.15
2022-09-23T21:11:26.104Z,85.48
2022-09-23T21:13:54.842Z,86.02
2022-09-23T21:16:22.842Z,86.33
2022-09-23T21:18:57.694Z,86.86
2022-09-23T21:21:24.818Z,87.15
2022-09-23T21:23:51.608Z,87.64
2022-09-23T21:26:20.948Z,87.90
2022-09-23T21:29:02.394Z,87.26
2022-09-23T21:31:38.586Z,87.83
2022-09-23T21:34:07.682Z,88.09
2022-09-23T21:36:39.528Z,87.94
2022-09-23T21:39:12.571Z,87.87
2022-09-23T21:41:40.046Z,88.80
2022-09-23T21:44:08.415Z,88.07
2022-09-23T21:46:35.637Z,88.47
2022-09-23T21:49:07.276Z,88.60
2022-09-23T21:51:40.532Z,86.78
2022-09-23T21:54:12.543Z,88.77
2022-09-23T21:56:39.182Z,90.24
2022-09-23T21:59:15.996Z,90.45
2022-09-23T22:01:44.983Z,90.23
2022-09-23T22:04:16.680Z,91.13
2022-09-23T22:06:43.827Z,89.64
2022-09-23T22:09:21.148Z,91.37
2022-09-23T22:12:07.775Z,89.72
2022-09-23T22:14:34.743Z,90.94
2022-09-23T22:17:06.600Z,89.17
2022-09-23T22:19:40.191Z,90.51
2022-09-23T22:22:13.332Z,90.01
2022-09-23T22:24:44.075Z,90.80
2022-09-23T22:27:12.444Z,90.20
2022-09-23T22:29:57.571Z,90.86
2022-09-23T22:32:46.128Z,90.96
2022-09-23T22:35:21.216Z,90.92
2022-09-23T22:37:47.977Z,91.57
2022-09-23T22:40:17.846Z,90.85
2022-09-23T22:42:45.339Z,91.31
2022-09-23T22:45:12.656Z,91.24
2022-09-23T22:47:41.299Z,91.46
2022-09-23T22:50:09.531Z,91.83
2022-09-23T22:52:36.436Z,91.44
2022-09-23T22:55:03.792Z,91.48
2022-09-23T22:57:31.260Z,91.34
2022-09-23T22:59:57.825Z,91.92
2022-09-23T23:02:24.424Z,91.54
2022-09-23T23:04:51.134Z,91.75
2022-09-23T23:07:23.176Z,91.85
2022-09-23T23:09:50.783Z,91.92
2022-09-23T23:12:20.723Z,92.47
2022-09-23T23:14:48.223Z,93.01
2022-09-23T23:17:14.937Z,94.14
2022-09-23T23:19:41.708Z,92.87
2022-09-23T23:22:08.477Z,92.81
2022-09-23T23:24:35.062Z,92.97
2022-09-23T23:27:01.709Z,93.18
2022-09-23T23:29:28.285Z,94.79
2022-09-23T23:31:55.641Z,93.66
2022-09-23T23:34:22.711Z,92.31
2022-09-23T23:36:54.775Z,93.78
2022-09-23T23:39:23.673Z,95.25
2022-09-23T23:41:55.226Z,94.52
2022-09-23T23:44:23.615Z,92.87
2022-09-23T23:46:50.649Z,93.17
2022-09-23T23:49:17.350Z,93.73
2022-09-23T23:51:43.962Z,93.89
2022-09-23T23:54:11.933Z,93.25
2022-09-23T23:56:38.498Z,93.71
2022-09-23T23:59:05.079Z,93.30
